createdAt,value
2023-03-06T00:00:45.559Z,16.23
2023-03-06T00:03:12.371Z,22.30
2023-03-06T00:05:39.979Z,20.67
2023-03-06T00:08:06.921Z,22.00
2023-03-06T00:10:33.970Z,23.50
2023-03-06T00:13:03.554Z,23.50
2023-03-06T00:15:30.408Z,26.60
2023-03-06T00:17:57.711Z,25.47
2023-03-06T00:20:25.497Z,23.13
2023-03-06T00:22:52.601Z,21.70
2023-03-06T00:25:21.340Z,20.17
2023-03-06T00:27:48.946Z,24.47
2023-03-06T00:30:19.024Z,25.10
2023-03-06T00:32:45.821Z,24.73
2023-03-06T00:35:13.617Z,22.87
2023-03-06T00:37:40.769Z,25.73
2023-03-06T00:40:10.907Z,23.97
2023-03-06T00:42:37.594Z,25.27
2023-03-06T00:45:04.694Z,27.20
2023-03-06T00:47:31.313Z,31.20
2023-03-06T00:49:57.992Z,27.83
2023-03-06T00:52:25.047Z,27.13
2023-03-06T00:54:51.750Z,26.27
2023-03-06T00:57:18.531Z,27.50
2023-03-06T00:59:45.952Z,27.27
2023-03-06T01:02:13.000Z,28.87
2023-03-06T01:04:40.060Z,27.20
2023-03-06T01:07:06.682Z,28.10
2023-03-06T01:09:33.360Z,27.47
2023-03-06T01:12:00.116Z,27.90
2023-03-06T01:14:26.956Z,28.10
2023-03-06T01:16:53.710Z,25.93
2023-03-06T01:19:20.490Z,27.67
2023-03-06T01:21:47.194Z,24.40
2023-03-06T01:24:13.892Z,23.83
2023-03-06T01:26:40.584Z,24.50
2023-03-06T01:29:07.417Z,30.93
2023-03-06T01:31:34.245Z,30.60
2023-03-06T01:34:00.894Z,26.03
2023-03-06T01:36:27.552Z,27.03
2023-03-06T01:38:54.307Z,30.20
2023-03-06T01:41:21.485Z,24.57
2023-03-06T01:43:48.407Z,27.30
2023-03-06T01:46:33.298Z,26.37
2023-03-06T01:49:08.951Z,27.47
2023-03-06T01:51:51.131Z,28.03
2023-03-06T01:54:27.185Z,27.20
2023-03-06T01:57:00.553Z,28.07
2023-03-06T01:59:29.117Z,26.33
2023-03-06T02:01:57.189Z,27.17
2023-03-06T02:04:24.630Z,25.20
2023-03-06T02:06:51.667Z,24.43
2023-03-06T02:09:18.585Z,28.47
2023-03-06T02:11:46.229Z,23.87
2023-03-06T02:14:16.108Z,25.43
2023-03-06T02:16:43.553Z,23.93
2023-03-06T02:19:54.652Z,29.17
2023-03-06T02:22:24.364Z,26.43
2023-03-06T02:25:04.398Z,26.97
2023-03-06T02:27:31.602Z,26.70
2023-03-06T02:29:58.287Z,32.50
2023-03-06T02:32:24.976Z,28.03
2023-03-06T02:34:54.800Z,25.20
2023-03-06T02:37:22.380Z,26.33
2023-03-06T02:39:54.452Z,24.30
2023-03-06T02:42:24.760Z,22.17
2023-03-06T02:44:53.561Z,27.23
2023-03-06T02:47:20.295Z,30.40
2023-03-06T02:49:47.073Z,26.67
2023-03-06T02:52:13.708Z,30.57
2023-03-06T02:54:40.488Z,27.57
2023-03-06T02:57:07.116Z,31.30
2023-03-06T02:59:33.787Z,32.00
2023-03-06T03:02:00.394Z,28.93
2023-03-06T03:04:27.117Z,27.17
2023-03-06T03:06:53.790Z,33.07
2023-03-06T03:09:20.472Z,28.17
2023-03-06T03:11:47.125Z,28.77
2023-03-06T03:14:13.812Z,25.27
2023-03-06T03:16:40.489Z,29.17
2023-03-06T03:19:07.236Z,31.13
2023-03-06T03:21:33.898Z,23.43
2023-03-06T03:24:00.773Z,26.57
2023-03-06T03:26:27.440Z,24.03
2023-03-06T03:28:54.045Z,21.50
2023-03-06T03:31:20.692Z,28.07
2023-03-06T03:33:47.706Z,26.33
2023-03-06T03:36:14.423Z,23.23
2023-03-06T03:38:41.182Z,25.90
2023-03-06T03:41:07.974Z,26.83
2023-03-06T03:43:34.616Z,23.63
2023-03-06T03:46:01.255Z,26.53
2023-03-06T03:48:27.851Z,22.03
2023-03-06T03:50:54.490Z,24.50
2023-03-06T03:53:21.128Z,24.13
2023-03-06T03:55:48.684Z,24.47
2023-03-06T03:58:15.642Z,25.00
2023-03-06T04:00:42.357Z,24.10
2023-03-06T04:03:08.986Z,22.57
2023-03-06T04:05:35.907Z,21.83
2023-03-06T04:08:03.193Z,20.53
2023-03-06T04:10:29.928Z,21.80
2023-03-06T04:12:57.075Z,23.97
2023-03-06T04:15:23.861Z,23.17
2023-03-06T04:17:50.496Z,24.67
2023-03-06T04:20:17.293Z,24.77
2023-03-06T04:22:43.968Z,24.87
2023-03-06T04:25:10.737Z,21.63
2023-03-06T04:27:37.458Z,21.67
2023-03-06T04:30:05.757Z,21.93
2023-03-06T04:32:32.538Z,23.07
2023-03-06T04:34:59.202Z,24.93
2023-03-06T04:37:26.494Z,23.07
2023-03-06T04:39:53.377Z,24.77
2023-03-06T04:42:20.004Z,20.60
2023-03-06T04:44:46.675Z,21.20
2023-03-06T04:47:13.425Z,26.17
2023-03-06T04:49:40.097Z,24.20
2023-03-06T04:52:07.399Z,23.20
2023-03-06T04:54:36.155Z,26.00
2023-03-06T04:57:02.888Z,24.17
2023-03-06T04:59:29.634Z,27.97
2023-03-06T05:01:56.443Z,25.60
2023-03-06T05:04:23.146Z,22.73
2023-03-06T05:06:49.878Z,27.17
2023-03-06T05:09:16.771Z,25.77
2023-03-06T05:11:43.394Z,27.00
2023-03-06T05:14:10.063Z,24.83
2023-03-06T05:16:36.717Z,23.10
2023-03-06T05:19:03.542Z,26.73
2023-03-06T05:21:30.194Z,24.07
2023-03-06T05:23:56.885Z,24.53
2023-03-06T05:26:23.496Z,24.03
2023-03-06T05:28:50.112Z,28.33
2023-03-06T05:31:16.999Z,22.10
2023-03-06T05:33:43.690Z,19.20
2023-03-06T05:36:10.389Z,22.37
2023-03-06T05:38:37.162Z,22.10
2023-03-06T05:41:04.072Z,25.93
2023-03-06T05:43:30.792Z,23.37
2023-03-06T05:46:05.165Z,24.00
2023-03-06T05:48:32.574Z,26.13
2023-03-06T05:51:00.687Z,22.70
2023-03-06T05:53:29.166Z,21.70
2023-03-06T05:56:04.322Z,30.03
2023-03-06T05:58:32.145Z,22.90
2023-03-06T06:00:59.037Z,25.70
2023-03-06T06:03:26.037Z,22.60
2023-03-06T06:05:53.165Z,23.53
2023-03-06T06:08:20.801Z,26.07
2023-03-06T06:10:47.523Z,27.90
2023-03-06T06:13:14.306Z,26.20
2023-03-06T06:15:40.937Z,20.77
2023-03-06T06:18:07.594Z,21.10
2023-03-06T06:20:35.453Z,22.10
2023-03-06T06:23:02.275Z,22.43
2023-03-06T06:25:29.072Z,22.30
2023-03-06T06:27:56.884Z,24.60
2023-03-06T06:30:24.212Z,22.93
2023-03-06T06:32:50.887Z,26.03
2023-03-06T06:35:17.713Z,25.97
2023-03-06T06:37:44.509Z,25.97
2023-03-06T06:40:11.735Z,21.47
2023-03-06T06:42:40.269Z,23.13
2023-03-06T06:45:10.996Z,22.43
2023-03-06T06:47:41.070Z,19.03
2023-03-06T06:50:12.507Z,17.17
2023-03-06T06:52:39.163Z,19.27
2023-03-06T06:55:06.295Z,19.30
2023-03-06T06:57:33.056Z,21.43
2023-03-06T06:59:59.710Z,21.07
2023-03-06T07:02:26.377Z,21.33
2023-03-06T07:05:03.591Z,25.07
2023-03-06T07:07:34.217Z,19.60
2023-03-06T07:10:00.904Z,22.47
2023-03-06T07:12:27.545Z,19.83
2023-03-06T07:14:54.181Z,22.87
2023-03-06T07:17:20.825Z,20.97
2023-03-06T07:19:48.245Z,23.73
2023-03-06T07:22:15.013Z,24.30
2023-03-06T07:24:41.708Z,21.03
2023-03-06T07:27:08.423Z,23.20
2023-03-06T07:29:35.192Z,23.73
2023-03-06T07:32:01.973Z,24.63
2023-03-06T07:34:28.824Z,22.03
2023-03-06T07:36:55.545Z,24.93
2023-03-06T07:39:22.143Z,22.23
2023-03-06T07:41:48.788Z,23.07
2023-03-06T07:44:15.415Z,24.13
2023-03-06T07:46:42.116Z,27.27
2023-03-06T07:49:08.906Z,26.40
2023-03-06T07:51:35.577Z,26.47
2023-03-06T07:54:02.222Z,19.27
2023-03-06T07:56:28.917Z,21.37
2023-03-06T07:58:57.038Z,24.00
2023-03-06T08:01:24.223Z,25.03
2023-03-06T08:03:51.472Z,21.50
2023-03-06T08:06:27.048Z,19.67
2023-03-06T08:08:55.744Z,18.67
2023-03-06T08:11:25.911Z,19.70
2023-03-06T08:13:52.969Z,20.37
2023-03-06T08:16:21.367Z,20.67
2023-03-06T08:18:48.353Z,22.13
2023-03-06T08:21:18.094Z,16.13
2023-03-06T08:23:45.744Z,18.37
2023-03-06T08:26:15.522Z,21.80
2023-03-06T08:28:42.448Z,19.60
2023-03-06T08:31:39.508Z,22.00
2023-03-06T08:34:09.525Z,17.37
2023-03-06T08:36:36.530Z,17.63
2023-03-06T08:39:04.018Z,20.10
2023-03-06T08:41:30.968Z,17.70
2023-03-06T08:43:57.913Z,14.43
2023-03-06T08:46:26.342Z,17.20
2023-03-06T08:48:53.440Z,17.60
2023-03-06T08:51:22.555Z,16.63
2023-03-06T08:53:49.953Z,15.43
2023-03-06T08:56:25.711Z,15.67
2023-03-06T08:58:54.161Z,17.83
2023-03-06T09:01:26.846Z,12.77
2023-03-06T09:03:55.966Z,12.43
2023-03-06T09:06:23.505Z,12.27
2023-03-06T09:08:53.777Z,12.27
2023-03-06T09:11:21.765Z,11.97
2023-03-06T09:13:48.516Z,16.37
2023-03-06T09:16:15.277Z,13.67
2023-03-06T09:18:42.361Z,11.97
2023-03-06T09:21:10.140Z,14.47
2023-03-06T09:23:39.422Z,11.07
2023-03-06T09:26:07.026Z,14.40
2023-03-06T09:28:36.688Z,12.17
2023-03-06T09:31:11.589Z,13.27
2023-03-06T09:33:39.038Z,12.57
2023-03-06T09:36:06.870Z,12.30
2023-03-06T09:38:34.792Z,10.07
2023-03-06T09:41:04.683Z,11.40
2023-03-06T09:43:36.246Z,7.93
2023-03-06T09:46:40.672Z,9.27
2023-03-06T09:49:23.061Z,9.33
2023-03-06T09:52:09.619Z,8.83
2023-03-06T09:54:44.411Z,7.63
2023-03-06T09:57:20.729Z,8.03
2023-03-06T09:59:51.414Z,9.73
2023-03-06T10:02:27.141Z,13.33
2023-03-06T10:05:01.072Z,7.53
2023-03-06T10:07:43.723Z,9.10
2023-03-06T10:10:20.424Z,7.27
2023-03-06T10:13:16.215Z,9.37
2023-03-06T10:15:46.134Z,8.27
2023-03-06T10:18:13.654Z,10.60
2023-03-06T10:20:40.322Z,10.67
2023-03-06T10:23:28.539Z,7.87
2023-03-06T10:26:01.174Z,7.47
2023-03-06T10:28:35.117Z,8.10
2023-03-06T10:31:27.941Z,8.87
2023-03-06T10:33:58.493Z,7.17
2023-03-06T10:36:28.508Z,8.00
2023-03-06T10:38:57.105Z,7.23
2023-03-06T10:41:30.726Z,8.87
2023-03-06T10:44:00.405Z,7.87
2023-03-06T10:46:51.544Z,8.87
2023-03-06T10:49:34.543Z,8.80
2023-03-06T10:52:01.235Z,6.40
2023-03-06T10:54:30.659Z,6.93
2023-03-06T10:56:57.750Z,6.53
2023-03-06T10:59:28.354Z,8.67
2023-03-06T11:02:36.173Z,8.57
2023-03-06T11:05:04.553Z,7.00
2023-03-06T11:07:35.971Z,5.83
2023-03-06T11:10:18.968Z,5.20
2023-03-06T11:13:01.402Z,6.23
2023-03-06T11:15:29.548Z,11.13
2023-03-06T11:18:04.421Z,9.13
2023-03-06T11:20:51.929Z,8.97
2023-03-06T11:23:42.345Z,9.60
2023-03-06T11:26:20.026Z,8.23
2023-03-06T11:29:16.107Z,9.03
2023-03-06T11:32:18.614Z,8.87
2023-03-06T11:34:53.152Z,10.97
2023-03-06T11:37:31.818Z,9.07
2023-03-06T11:40:10.768Z,9.10
2023-03-06T11:43:01.378Z,9.40
2023-03-06T11:45:38.095Z,9.50
2023-03-06T11:48:24.635Z,9.00
2023-03-06T11:50:53.595Z,10.10
2023-03-06T11:53:23.173Z,9.47
2023-03-06T11:56:10.336Z,7.60
2023-03-06T11:58:58.188Z,8.50
2023-03-06T12:01:57.590Z,7.77
2023-03-06T12:04:46.061Z,8.27
2023-03-06T12:07:30.442Z,9.07
2023-03-06T12:10:11.488Z,9.67
2023-03-06T12:13:19.213Z,7.23
2023-03-06T12:15:54.533Z,8.40
2023-03-06T12:18:29.874Z,10.07
2023-03-06T12:21:36.666Z,8.37
2023-03-06T12:24:30.605Z,6.70
2023-03-06T12:27:04.512Z,6.50
2023-03-06T12:29:39.988Z,7.43
2023-03-06T12:32:35.108Z,7.47
2023-03-06T12:35:19.960Z,6.10
2023-03-06T12:37:49.430Z,7.93
2023-03-06T12:40:45.530Z,7.03
2023-03-06T12:43:49.590Z,8.53
2023-03-06T12:46:20.368Z,8.23
2023-03-06T12:49:26.273Z,7.27
2023-03-06T12:51:58.562Z,7.77
2023-03-06T12:54:32.399Z,6.03
2023-03-06T12:57:00.759Z,6.63
2023-03-06T12:59:48.001Z,7.93
2023-03-06T13:02:33.534Z,6.17
2023-03-06T13:05:45.394Z,8.43
2023-03-06T13:09:00.682Z,8.43
2023-03-06T13:11:36.431Z,6.57
2023-03-06T13:14:24.773Z,8.90
2023-03-06T13:16:51.804Z,7.70
2023-03-06T13:19:26.528Z,7.30
2023-03-06T13:21:56.212Z,8.93
2023-03-06T13:24:25.436Z,9.37
2023-03-06T13:26:56.777Z,7.17
2023-03-06T13:29:38.516Z,6.47
2023-03-06T13:32:16.214Z,7.17
2023-03-06T13:34:48.559Z,8.67
2023-03-06T13:37:23.161Z,7.20
2023-03-06T13:39:55.529Z,7.77
2023-03-06T13:42:42.587Z,7.30
2023-03-06T13:45:16.277Z,6.23
2023-03-06T13:48:15.825Z,7.80
2023-03-06T13:50:48.131Z,6.87
2023-03-06T13:53:30.032Z,6.93
2023-03-06T13:56:06.564Z,7.67
2023-03-06T13:59:13.790Z,6.70
2023-03-06T14:01:40.750Z,10.03
2023-03-06T14:04:10.940Z,8.17
2023-03-06T14:06:38.402Z,10.47
2023-03-06T14:09:08.270Z,6.80
2023-03-06T14:11:36.340Z,7.47
2023-03-06T14:14:03.715Z,5.57
2023-03-06T14:16:49.053Z,7.90
2023-03-06T14:19:18.562Z,7.30
2023-03-06T14:21:45.281Z,8.03
2023-03-06T14:24:20.184Z,11.03
2023-03-06T14:26:50.222Z,6.53
2023-03-06T14:29:25.598Z,6.53
2023-03-06T14:31:55.103Z,6.57
2023-03-06T14:34:29.314Z,6.70
2023-03-06T14:37:02.723Z,7.87
2023-03-06T14:39:39.404Z,7.03
2023-03-06T14:42:06.002Z,6.60
2023-03-06T14:44:32.640Z,8.57
2023-03-06T14:47:23.194Z,6.93
2023-03-06T14:50:23.549Z,7.87
2023-03-06T14:53:04.293Z,11.03
2023-03-06T14:55:34.671Z,6.17
2023-03-06T14:58:07.607Z,7.30
2023-03-06T15:00:40.729Z,8.00
2023-03-06T15:03:24.721Z,6.77
2023-03-06T15:05:52.204Z,5.97
2023-03-06T15:08:25.145Z,8.93
2023-03-06T15:11:03.474Z,10.27
2023-03-06T15:13:32.417Z,7.03
2023-03-06T15:16:00.742Z,7.07
2023-03-06T15:18:39.638Z,6.83
2023-03-06T15:21:16.163Z,7.30
2023-03-06T15:23:48.326Z,6.40
2023-03-06T15:26:47.302Z,6.70
2023-03-06T15:29:22.936Z,6.23
2023-03-06T15:31:49.830Z,6.00
2023-03-06T15:34:24.427Z,7.60
2023-03-06T15:36:56.668Z,7.80
2023-03-06T15:39:34.623Z,6.57
2023-03-06T15:42:18.208Z,9.43
2023-03-06T15:44:51.005Z,6.37
2023-03-06T15:47:17.904Z,6.77
2023-03-06T15:49:45.152Z,8.00
2023-03-06T15:52:12.092Z,8.37
2023-03-06T15:54:38.844Z,8.80
2023-03-06T15:57:08.458Z,7.80
2023-03-06T15:59:43.428Z,9.17
2023-03-06T16:02:21.652Z,8.17
2023-03-06T16:04:49.370Z,9.10
2023-03-06T16:07:16.428Z,7.90
2023-03-06T16:09:43.732Z,9.50
2023-03-06T16:12:21.675Z,9.23
2023-03-06T16:14:49.470Z,6.17
2023-03-06T16:17:16.867Z,7.23
2023-03-06T16:19:44.203Z,8.73
2023-03-06T16:22:11.152Z,8.03
2023-03-06T16:24:37.795Z,11.50
2023-03-06T16:27:04.609Z,7.17
2023-03-06T16:29:31.430Z,10.63
2023-03-06T16:31:59.035Z,9.93
2023-03-06T16:34:25.807Z,8.27
2023-03-06T16:36:52.616Z,11.07
2023-03-06T16:39:22.581Z,9.37
2023-03-06T16:41:51.569Z,8.03
2023-03-06T16:44:18.792Z,9.17
2023-03-06T16:46:48.076Z,9.90
2023-03-06T16:49:25.263Z,8.87
2023-03-06T16:51:52.765Z,9.23
2023-03-06T16:54:20.067Z,10.20
2023-03-06T16:56:46.770Z,9.63
2023-03-06T16:59:13.756Z,14.70
2023-03-06T17:01:42.922Z,12.40
2023-03-06T17:04:10.237Z,8.17
2023-03-06T17:06:37.033Z,10.23
2023-03-06T17:09:04.573Z,9.13
2023-03-06T17:11:31.319Z,8.87
2023-03-06T17:13:58.301Z,9.17
2023-03-06T17:16:24.986Z,10.10
2023-03-06T17:18:52.348Z,9.13
2023-03-06T17:21:19.148Z,9.37
2023-03-06T17:23:46.049Z,10.63
2023-03-06T17:26:18.740Z,10.77
2023-03-06T17:28:46.386Z,9.27
2023-03-06T17:31:22.121Z,9.90
2023-03-06T17:33:49.588Z,9.37
2023-03-06T17:36:16.965Z,11.30
2023-03-06T17:38:43.629Z,10.03
2023-03-06T17:41:11.727Z,9.03
2023-03-06T17:43:39.559Z,11.10
2023-03-06T17:46:09.278Z,11.07
2023-03-06T17:48:36.841Z,10.17
2023-03-06T17:51:04.382Z,9.03
2023-03-06T17:53:31.539Z,10.97
2023-03-06T17:55:58.304Z,9.47
2023-03-06T17:58:26.316Z,10.67
2023-03-06T18:00:53.705Z,12.80
2023-03-06T18:03:20.556Z,11.00
2023-03-06T18:05:47.239Z,9.87
2023-03-06T18:08:14.060Z,9.20
2023-03-06T18:10:41.752Z,8.43
2023-03-06T18:13:09.752Z,8.53
2023-03-06T18:15:40.786Z,10.70
2023-03-06T18:18:08.562Z,10.77
2023-03-06T18:20:41.078Z,12.10
2023-03-06T18:23:08.063Z,11.93
2023-03-06T18:25:35.321Z,10.63
2023-03-06T18:28:02.051Z,12.20
2023-03-06T18:30:29.030Z,11.60
2023-03-06T18:32:55.849Z,11.37
2023-03-06T18:35:22.657Z,11.77
2023-03-06T18:37:49.305Z,12.23
2023-03-06T18:40:16.221Z,17.17
2023-03-06T18:42:43.260Z,11.87
2023-03-06T18:45:11.048Z,13.27
2023-03-06T18:47:37.827Z,13.53
2023-03-06T18:50:05.403Z,13.13
2023-03-06T18:52:34.768Z,13.93
2023-03-06T18:55:01.431Z,16.30
2023-03-06T18:57:30.215Z,14.73
2023-03-06T18:59:57.092Z,17.83
2023-03-06T19:02:23.844Z,15.50
2023-03-06T19:04:50.780Z,12.57
2023-03-06T19:07:17.573Z,16.97
2023-03-06T19:09:44.359Z,18.87
2023-03-06T19:12:11.698Z,17.90
2023-03-06T19:14:38.874Z,15.63
2023-03-06T19:17:05.527Z,14.03
2023-03-06T19:19:32.295Z,12.77
2023-03-06T19:21:59.948Z,16.40
2023-03-06T19:24:27.152Z,13.17
2023-03-06T19:26:53.896Z,14.30
2023-03-06T19:29:20.594Z,18.80
2023-03-06T19:31:47.402Z,19.50
2023-03-06T19:34:14.232Z,16.20
2023-03-06T19:36:41.211Z,14.63
2023-03-06T19:39:09.526Z,17.70
2023-03-06T19:41:36.471Z,22.13
2023-03-06T19:44:05.058Z,27.17
2023-03-06T19:46:32.822Z,18.47
2023-03-06T19:49:01.720Z,14.97
2023-03-06T19:51:29.064Z,13.90
2023-03-06T19:53:57.349Z,15.23
2023-03-06T19:56:28.658Z,13.50
2023-03-06T19:58:55.994Z,17.13
2023-03-06T20:01:25.025Z,16.20
2023-03-06T20:03:58.673Z,14.37
2023-03-06T20:06:28.078Z,14.50
2023-03-06T20:08:55.071Z,14.47
2023-03-06T20:11:27.222Z,13.77
2023-03-06T20:13:53.971Z,14.97
2023-03-06T20:16:21.205Z,13.50
2023-03-06T20:18:47.970Z,14.30
2023-03-06T20:21:15.386Z,13.37
2023-03-06T20:23:42.834Z,13.20
2023-03-06T20:26:14.895Z,12.77
2023-03-06T20:28:42.549Z,12.90
2023-03-06T20:33:58.820Z,10.83
2023-03-06T20:36:31.949Z,11.60
2023-03-06T20:39:06.679Z,11.97
2023-03-06T20:41:33.666Z,12.93
2023-03-06T20:44:02.502Z,12.23
2023-03-06T20:46:30.304Z,13.17
2023-03-06T20:48:58.244Z,11.23
2023-03-06T20:51:27.884Z,13.63
2023-03-06T20:53:55.572Z,13.47
2023-03-06T20:56:25.592Z,9.83
2023-03-06T20:58:52.647Z,11.27
2023-03-06T21:01:21.425Z,14.13
2023-03-06T21:03:48.870Z,11.20
2023-03-06T21:06:16.472Z,11.03
2023-03-06T21:08:43.681Z,11.27
2023-03-06T21:11:10.452Z,12.77
2023-03-06T21:13:37.280Z,11.53
2023-03-06T21:16:06.621Z,12.63
2023-03-06T21:18:33.595Z,12.47
2023-03-06T21:21:05.464Z,12.83
2023-03-06T21:23:32.143Z,13.50
2023-03-06T21:25:58.893Z,14.17
2023-03-06T21:28:25.626Z,13.57
2023-03-06T21:30:52.299Z,12.27
2023-03-06T21:33:19.030Z,13.33
2023-03-06T21:35:46.220Z,16.83
2023-03-06T21:38:14.160Z,14.83
2023-03-06T21:40:41.038Z,14.47
2023-03-06T21:43:08.814Z,13.80
2023-03-06T21:45:35.689Z,13.77
2023-03-06T21:48:02.558Z,14.90
2023-03-06T21:50:30.142Z,15.53
2023-03-06T21:52:57.362Z,16.00
2023-03-06T21:55:24.087Z,14.93
2023-03-06T21:57:52.267Z,13.47
2023-03-06T22:00:20.039Z,12.13
2023-03-06T22:02:47.144Z,13.73
2023-03-06T22:05:14.094Z,12.97
2023-03-06T22:07:41.180Z,14.23
2023-03-06T22:10:11.951Z,14.83
2023-03-06T22:12:39.927Z,13.90
2023-03-06T22:15:07.289Z,13.53
2023-03-06T22:17:34.056Z,14.00
2023-03-06T22:20:01.078Z,12.90
2023-03-06T22:22:27.775Z,12.63
2023-03-06T22:24:54.551Z,12.27
2023-03-06T22:27:21.724Z,12.83
2023-03-06T22:29:48.423Z,12.70
2023-03-06T22:32:15.461Z,14.37
2023-03-06T22:34:42.221Z,15.00
2023-03-06T22:37:08.871Z,13.33
2023-03-06T22:39:35.561Z,15.97
2023-03-06T22:42:02.199Z,17.17
2023-03-06T22:44:28.928Z,17.70
2023-03-06T22:46:55.960Z,14.00
2023-03-06T22:49:22.622Z,13.40
2023-03-06T22:51:49.292Z,15.93
2023-03-06T22:54:15.942Z,13.07
2023-03-06T22:56:42.610Z,13.03
2023-03-06T22:59:09.270Z,13.90
2023-03-06T23:01:36.076Z,14.13
2023-03-06T23:04:04.819Z,13.30
2023-03-06T23:06:34.592Z,12.13
2023-03-06T23:09:04.621Z,13.33
2023-03-06T23:11:31.759Z,12.87
2023-03-06T23:13:59.033Z,12.80
2023-03-06T23:16:25.866Z,14.57
2023-03-06T23:18:53.559Z,14.27
2023-03-06T23:21:22.883Z,11.63
2023-03-06T23:23:51.436Z,14.00
2023-03-06T23:26:19.844Z,10.93
2023-03-06T23:28:46.803Z,11.60
2023-03-06T23:31:23.736Z,11.37
2023-03-06T23:33:50.495Z,15.63
2023-03-06T23:36:18.381Z,14.33
2023-03-06T23:38:45.442Z,12.83
2023-03-06T23:41:15.078Z,11.93
2023-03-06T23:43:42.374Z,12.87
2023-03-06T23:46:09.572Z,12.20
2023-03-06T23:48:38.354Z,12.33
2023-03-06T23:51:07.271Z,16.17
2023-03-06T23:53:34.027Z,13.40
2023-03-06T23:56:01.117Z,11.03
2023-03-06T23:58:27.814Z,11.97
